createdAt,value
2018-04-15T00:00:51.161Z,29.03
2018-04-15T00:03:26.733Z,33.40
2018-04-15T00:06:01.415Z,36.20
2018-04-15T00:08:36.252Z,32.10
2018-04-15T00:11:11.750Z,32.63
2018-04-15T00:13:46.516Z,33.77
2018-04-15T00:16:21.174Z,33.57
2018-04-15T00:18:55.895Z,31.93
2018-04-15T00:21:30.703Z,34.80
2018-04-15T00:24:05.296Z,34.17
2018-04-15T00:26:40.139Z,34.40
2018-04-15T00:29:14.902Z,35.87
2018-04-15T00:31:49.536Z,42.87
2018-04-15T00:34:24.372Z,38.93
2018-04-15T00:36:59.281Z,39.07
2018-04-15T00:39:34.159Z,35.03
2018-04-15T00:42:09.042Z,38.87
2018-04-15T00:44:44.635Z,41.07
2018-04-15T00:47:13.837Z,43.10
2018-04-15T00:49:48.615Z,40.07
2018-04-15T00:52:23.587Z,40.10
2018-04-15T00:54:58.326Z,35.50
2018-04-15T00:57:33.105Z,41.93
2018-04-15T01:00:07.391Z,40.77
2018-04-15T01:02:42.789Z,39.30
2018-04-15T01:05:18.505Z,37.27
2018-04-15T01:07:53.404Z,41.90
2018-04-15T01:10:27.935Z,40.10
2018-04-15T01:13:02.881Z,38.83
2018-04-15T01:15:37.648Z,48.47
2018-04-15T01:18:13.136Z,50.27
2018-04-15T01:20:48.701Z,53.60
2018-04-15T01:23:23.517Z,50.97
2018-04-15T01:25:58.007Z,48.87
2018-04-15T01:28:32.805Z,74.57
2018-04-15T01:31:07.604Z,73.20
2018-04-15T01:33:42.479Z,87.50
2018-04-15T01:36:17.322Z,83.53
2018-04-15T01:38:52.995Z,129.70
2018-04-15T01:41:28.151Z,116.97
2018-04-15T01:44:02.917Z,122.77
2018-04-15T01:46:37.547Z,106.77
2018-04-15T01:49:12.905Z,82.43
2018-04-15T01:51:47.607Z,57.00
2018-04-15T01:54:17.493Z,49.10
2018-04-15T01:56:52.108Z,45.83
2018-04-15T01:59:26.917Z,44.60
2018-04-15T02:02:01.644Z,42.60
2018-04-15T02:04:36.310Z,37.03
2018-04-15T02:07:12.117Z,32.00
2018-04-15T02:09:46.991Z,32.80
2018-04-15T02:12:21.829Z,30.80
2018-04-15T02:14:56.605Z,35.90
2018-04-15T02:17:31.337Z,30.73
2018-04-15T02:20:06.353Z,27.97
2018-04-15T02:22:40.996Z,28.17
2018-04-15T02:25:16.566Z,30.73
2018-04-15T02:27:51.308Z,29.50
2018-04-15T02:30:26.151Z,28.13
2018-04-15T02:33:00.717Z,30.07
2018-04-15T02:35:35.384Z,28.47
2018-04-15T02:38:10.146Z,25.40
2018-04-15T02:40:44.979Z,24.33
2018-04-15T02:43:14.180Z,25.50
2018-04-15T02:45:49.037Z,33.43
2018-04-15T02:48:23.766Z,24.93
2018-04-15T02:50:58.601Z,21.90
2018-04-15T02:53:33.290Z,22.83
2018-04-15T02:56:07.901Z,19.33
2018-04-15T02:58:42.832Z,21.40
2018-04-15T03:01:18.572Z,19.67
2018-04-15T03:03:53.466Z,19.30
2018-04-15T03:06:28.337Z,20.50
2018-04-15T03:09:02.957Z,24.10
2018-04-15T03:11:37.793Z,21.87
2018-04-15T03:14:12.588Z,24.30
2018-04-15T03:16:48.317Z,26.23
2018-04-15T03:19:23.107Z,29.67
2018-04-15T03:21:57.695Z,31.70
2018-04-15T03:24:32.397Z,27.40
2018-04-15T03:27:08.231Z,27.07
2018-04-15T03:29:43.916Z,30.50
2018-04-15T03:32:18.565Z,30.57
2018-04-15T03:34:53.567Z,28.03
2018-04-15T03:37:22.715Z,26.53
2018-04-15T03:39:57.048Z,28.77
2018-04-15T03:42:32.479Z,36.13
2018-04-15T03:45:07.098Z,24.30
2018-04-15T03:47:41.767Z,25.10
2018-04-15T03:50:17.381Z,29.50
2018-04-15T03:52:52.100Z,28.40
2018-04-15T03:55:26.870Z,26.17
2018-04-15T03:58:01.751Z,30.90
2018-04-15T04:00:37.409Z,25.00
2018-04-15T04:03:12.284Z,27.20
2018-04-15T04:05:46.976Z,29.13
2018-04-15T04:08:21.710Z,26.53
2018-04-15T04:10:56.560Z,26.00
2018-04-15T04:13:31.391Z,26.03
2018-04-15T04:16:06.139Z,24.07
2018-04-15T04:18:52.620Z,26.57
2018-04-15T04:21:39.317Z,24.83
2018-04-15T04:24:25.564Z,22.23
2018-04-15T04:27:00.538Z,25.40
2018-04-15T04:29:35.289Z,27.37
2018-04-15T04:32:10.669Z,27.37
2018-04-15T04:34:45.597Z,26.30
2018-04-15T04:37:20.722Z,26.37
2018-04-15T04:39:55.623Z,27.00
2018-04-15T04:42:30.454Z,27.07
2018-04-15T04:45:05.287Z,23.57
2018-04-15T04:47:40.265Z,30.17
2018-04-15T04:50:14.950Z,29.40
2018-04-15T04:52:49.698Z,28.30
2018-04-15T04:55:24.520Z,21.27
2018-04-15T04:57:59.302Z,23.23
2018-04-15T05:00:33.929Z,24.90
2018-04-15T05:03:09.601Z,22.70
2018-04-15T05:05:44.533Z,22.23
2018-04-15T05:08:19.244Z,22.70
2018-04-15T05:10:54.295Z,17.60
2018-04-15T05:13:28.734Z,20.90
2018-04-15T05:16:03.557Z,15.13
2018-04-15T05:18:32.803Z,13.43
2018-04-15T05:21:07.607Z,12.57
2018-04-15T05:23:42.417Z,14.03
2018-04-15T05:26:17.230Z,12.73
2018-04-15T05:28:51.924Z,12.73
2018-04-15T05:31:26.892Z,16.40
2018-04-15T05:34:01.699Z,15.80
2018-04-15T05:36:37.080Z,18.73
2018-04-15T05:39:12.293Z,18.07
2018-04-15T05:41:47.115Z,18.30
2018-04-15T05:44:21.956Z,21.33
2018-04-15T05:46:57.328Z,19.60
2018-04-15T05:49:32.148Z,16.90
2018-04-15T05:52:06.986Z,17.90
2018-04-15T05:54:41.990Z,15.67
2018-04-15T05:57:16.792Z,14.20
2018-04-15T05:59:51.457Z,15.23
2018-04-15T06:02:27.870Z,16.73
2018-04-15T06:05:03.243Z,15.90
2018-04-15T06:07:32.473Z,17.40
2018-04-15T06:10:07.904Z,21.83
2018-04-15T06:12:42.540Z,18.30
2018-04-15T06:15:17.255Z,19.07
2018-04-15T06:17:53.431Z,20.47
2018-04-15T06:20:28.950Z,20.73
2018-04-15T06:23:04.642Z,20.00
2018-04-15T06:25:39.564Z,18.73
2018-04-15T06:28:14.401Z,20.80
2018-04-15T06:30:49.213Z,19.53
2018-04-15T06:33:25.049Z,19.03
2018-04-15T06:35:59.669Z,19.00
2018-04-15T06:38:34.326Z,21.67
2018-04-15T06:41:09.154Z,20.60
2018-04-15T06:43:43.879Z,18.77
2018-04-15T06:46:18.621Z,20.50
2018-04-15T06:48:53.408Z,23.10
2018-04-15T06:51:27.932Z,22.73
2018-04-15T06:54:03.284Z,23.20
2018-04-15T06:56:37.928Z,20.10
2018-04-15T06:59:13.052Z,19.63
2018-04-15T07:01:47.831Z,17.53
2018-04-15T07:04:22.470Z,18.47
2018-04-15T07:06:57.970Z,21.83
2018-04-15T07:09:32.668Z,23.00
2018-04-15T07:12:07.647Z,25.07
2018-04-15T07:14:43.269Z,22.70
2018-04-15T07:17:19.643Z,22.73
2018-04-15T07:19:55.202Z,20.77
2018-04-15T07:22:29.998Z,21.67
2018-04-15T07:25:05.602Z,23.60
2018-04-15T07:27:35.238Z,22.17
2018-04-15T07:30:09.988Z,21.03
2018-04-15T07:32:44.638Z,23.27
2018-04-15T07:35:19.459Z,22.80
2018-04-15T07:37:53.867Z,23.60
2018-04-15T07:40:28.661Z,24.50
2018-04-15T07:43:03.323Z,21.00
2018-04-15T07:45:38.034Z,20.13
2018-04-15T07:48:12.767Z,21.47
2018-04-15T07:50:47.893Z,21.33
2018-04-15T07:53:22.623Z,18.50
2018-04-15T07:55:57.402Z,22.73
2018-04-15T07:58:32.236Z,18.10
2018-04-15T08:01:07.023Z,15.73
2018-04-15T08:03:41.819Z,14.57
2018-04-15T08:06:16.820Z,17.47
2018-04-15T08:08:52.949Z,13.00
2018-04-15T08:11:27.742Z,14.77
2018-04-15T08:14:02.568Z,14.43
2018-04-15T08:16:39.100Z,14.57
2018-04-15T08:19:14.226Z,15.03
2018-04-15T08:21:48.839Z,15.33
2018-04-15T08:24:23.696Z,14.70
2018-04-15T08:26:58.351Z,15.10
2018-04-15T08:29:33.014Z,12.40
2018-04-15T08:32:07.658Z,12.83
2018-04-15T08:34:42.616Z,15.97
2018-04-15T08:37:17.498Z,16.83
2018-04-15T08:39:53.111Z,17.20
2018-04-15T08:42:28.016Z,16.00
2018-04-15T08:45:03.097Z,15.10
2018-04-15T08:47:37.774Z,14.53
2018-04-15T08:50:12.540Z,13.03
2018-04-15T08:52:47.192Z,12.83
2018-04-15T08:55:21.846Z,10.87
2018-04-15T08:57:56.427Z,10.07
2018-04-15T09:00:31.109Z,12.37
2018-04-15T09:03:05.832Z,9.60
2018-04-15T09:05:41.318Z,10.20
2018-04-15T09:08:16.720Z,11.00
2018-04-15T09:10:52.338Z,10.97
2018-04-15T09:13:27.335Z,9.40
2018-04-15T09:16:02.820Z,9.10
2018-04-15T09:18:37.213Z,10.63
2018-04-15T09:21:11.827Z,10.90
2018-04-15T09:23:46.884Z,10.70
2018-04-15T09:26:21.803Z,11.30
2018-04-15T09:28:56.703Z,8.30
2018-04-15T09:31:32.361Z,8.77
2018-04-15T09:34:07.308Z,7.60
2018-04-15T09:36:42.162Z,7.90
2018-04-15T09:39:18.674Z,7.67
2018-04-15T09:41:53.501Z,5.93
2018-04-15T09:44:27.888Z,5.60
2018-04-15T09:47:03.921Z,5.87
2018-04-15T09:49:38.710Z,5.20
2018-04-15T09:52:13.615Z,8.20
2018-04-15T09:54:49.006Z,7.23
2018-04-15T09:57:23.708Z,6.70
2018-04-15T09:59:58.692Z,6.90
2018-04-15T10:02:33.685Z,6.33
2018-04-15T10:05:08.763Z,5.77
2018-04-15T10:07:43.871Z,6.13
2018-04-15T10:10:23.827Z,6.60
2018-04-15T10:12:58.752Z,6.47
2018-04-15T10:15:34.199Z,7.50
2018-04-15T10:18:09.117Z,8.83
2018-04-15T10:20:44.071Z,9.20
2018-04-15T10:23:19.094Z,7.63
2018-04-15T10:25:54.232Z,7.87
2018-04-15T10:28:29.372Z,8.90
2018-04-15T10:31:04.143Z,7.00
2018-04-15T10:33:39.870Z,7.70
2018-04-15T10:36:14.643Z,6.60
2018-04-15T10:38:50.313Z,6.70
2018-04-15T10:41:25.476Z,12.30
2018-04-15T10:44:00.109Z,7.70
2018-04-15T10:46:35.081Z,6.37
2018-04-15T10:49:10.096Z,7.00
2018-04-15T10:51:45.256Z,5.63
2018-04-15T10:54:20.201Z,5.60
2018-04-15T10:56:54.812Z,5.63
2018-04-15T10:59:29.777Z,5.90
2018-04-15T11:02:04.809Z,5.77
2018-04-15T11:04:39.724Z,5.53
2018-04-15T11:07:14.930Z,5.20
2018-04-15T11:09:50.683Z,4.97
2018-04-15T11:12:25.407Z,5.07
2018-04-15T11:15:00.286Z,4.53
2018-04-15T11:17:35.073Z,4.47
2018-04-15T11:20:09.806Z,5.70
2018-04-15T11:22:44.673Z,4.57
2018-04-15T11:25:19.512Z,4.33
2018-04-15T11:27:54.227Z,4.73
2018-04-15T11:30:28.867Z,5.67
2018-04-15T11:33:04.715Z,5.20
2018-04-15T11:35:39.733Z,4.83
2018-04-15T11:38:15.000Z,5.20
2018-04-15T11:40:49.659Z,5.93
2018-04-15T11:43:24.543Z,5.93
2018-04-15T11:45:59.380Z,4.90
2018-04-15T11:48:34.416Z,4.90
2018-04-15T11:51:09.243Z,4.43
2018-04-15T11:53:44.015Z,4.37
2018-04-15T11:56:19.464Z,4.57
2018-04-15T11:58:54.214Z,3.67
2018-04-15T12:01:28.867Z,4.63
2018-04-15T12:04:03.505Z,5.07
2018-04-15T12:06:38.315Z,4.77
2018-04-15T12:09:13.089Z,4.10
2018-04-15T12:11:48.380Z,5.60
2018-04-15T12:14:23.036Z,4.10
2018-04-15T12:16:57.772Z,3.70
2018-04-15T12:19:32.792Z,4.30
2018-04-15T12:22:07.524Z,3.33
2018-04-15T12:24:43.300Z,3.57
2018-04-15T12:27:18.791Z,4.60
2018-04-15T12:29:53.815Z,5.13
2018-04-15T12:32:29.223Z,3.50
2018-04-15T12:35:04.054Z,3.23
2018-04-15T12:37:38.693Z,3.73
2018-04-15T12:40:13.546Z,3.67
2018-04-15T12:42:48.218Z,3.80
2018-04-15T12:45:23.974Z,4.70
2018-04-15T12:47:58.935Z,2.83
2018-04-15T12:50:33.656Z,3.07
2018-04-15T12:53:08.327Z,3.27
2018-04-15T12:55:43.020Z,2.77
2018-04-15T12:58:17.863Z,4.13
2018-04-15T13:00:53.429Z,3.90
2018-04-15T13:03:28.312Z,4.23
2018-04-15T13:06:02.920Z,3.10
2018-04-15T13:08:38.536Z,4.13
2018-04-15T13:11:13.300Z,3.40
2018-04-15T13:13:47.915Z,3.20
2018-04-15T13:16:23.353Z,3.40
2018-04-15T13:18:58.959Z,5.30
2018-04-15T13:21:33.692Z,3.47
2018-04-15T13:24:08.576Z,2.90
2018-04-15T13:26:43.287Z,2.77
2018-04-15T13:29:18.712Z,3.43
2018-04-15T13:31:53.481Z,3.83
2018-04-15T13:34:28.549Z,2.77
2018-04-15T13:37:04.076Z,5.83
2018-04-15T13:39:38.905Z,6.63
2018-04-15T13:42:13.577Z,4.73
2018-04-15T13:44:48.429Z,2.30
2018-04-15T13:47:23.179Z,4.23
2018-04-15T13:49:57.779Z,2.20
2018-04-15T13:52:32.759Z,2.33
2018-04-15T13:55:08.188Z,3.53
2018-04-15T13:57:42.865Z,2.50
2018-04-15T14:00:17.758Z,2.57
2018-04-15T14:02:53.362Z,2.50
2018-04-15T14:05:28.134Z,2.47
2018-04-15T14:08:03.715Z,2.20
2018-04-15T14:10:38.490Z,2.07
2018-04-15T14:13:14.570Z,2.53
2018-04-15T14:15:49.370Z,2.50
2018-04-15T14:18:24.172Z,7.83
2018-04-15T14:20:58.887Z,3.53
2018-04-15T14:23:34.475Z,4.40
2018-04-15T14:26:09.981Z,2.40
2018-04-15T14:28:44.714Z,2.57
2018-04-15T14:31:19.590Z,2.67
2018-04-15T14:33:55.161Z,2.37
2018-04-15T14:36:29.935Z,3.03
2018-04-15T14:39:03.790Z,2.40
2018-04-15T14:41:38.389Z,4.23
2018-04-15T14:44:13.506Z,2.30
2018-04-15T14:46:48.360Z,2.20
2018-04-15T14:49:23.216Z,2.83
2018-04-15T14:51:57.992Z,2.30
2018-04-15T14:54:33.643Z,2.27
2018-04-15T14:57:08.558Z,3.20
2018-04-15T14:59:43.288Z,2.47
2018-04-15T15:02:18.080Z,2.37
2018-04-15T15:04:52.744Z,2.47
2018-04-15T15:07:27.643Z,4.63
2018-04-15T15:10:02.346Z,2.30
2018-04-15T15:12:37.102Z,2.20
2018-04-15T15:15:12.015Z,3.10
2018-04-15T15:17:46.933Z,2.73
2018-04-15T15:20:22.079Z,1.93
2018-04-15T15:22:57.880Z,4.97
2018-04-15T15:25:32.597Z,2.23
2018-04-15T15:28:07.250Z,2.57
2018-04-15T15:30:42.870Z,2.47
2018-04-15T15:33:17.711Z,3.60
2018-04-15T15:35:52.460Z,2.30
2018-04-15T15:38:27.235Z,3.80
2018-04-15T15:41:02.120Z,4.73
2018-04-15T15:43:37.155Z,5.40
2018-04-15T15:46:11.960Z,2.77
2018-04-15T15:48:46.766Z,2.53
2018-04-15T15:51:21.904Z,3.23
2018-04-15T15:53:56.587Z,4.27
2018-04-15T15:56:31.386Z,5.10
2018-04-15T15:59:06.178Z,2.80
2018-04-15T16:01:40.959Z,4.43
2018-04-15T16:04:16.007Z,3.30
2018-04-15T16:06:50.712Z,2.97
2018-04-15T16:09:25.460Z,2.90
2018-04-15T16:12:00.802Z,4.90
2018-04-15T16:14:35.776Z,5.50
2018-04-15T16:17:10.529Z,6.70
2018-04-15T16:19:45.389Z,4.57
2018-04-15T16:22:20.237Z,3.10
2018-04-15T16:24:55.239Z,6.83
2018-04-15T16:27:30.159Z,3.53
2018-04-15T16:30:04.776Z,4.00
2018-04-15T16:32:39.845Z,6.37
2018-04-15T16:35:14.619Z,2.80
2018-04-15T16:37:52.522Z,2.70
2018-04-15T16:40:27.187Z,5.00
2018-04-15T16:43:01.680Z,3.00
2018-04-15T16:45:37.115Z,4.20
2018-04-15T16:48:11.973Z,4.23
2018-04-15T16:50:46.782Z,3.67
2018-04-15T16:53:21.903Z,4.80
2018-04-15T16:55:57.025Z,3.50
2018-04-15T16:58:32.155Z,3.30
2018-04-15T17:01:07.500Z,4.67
2018-04-15T17:03:43.412Z,3.60
2018-04-15T17:06:18.176Z,3.53
2018-04-15T17:08:53.581Z,3.53
2018-04-15T17:11:28.465Z,3.77
2018-04-15T17:14:03.358Z,6.43
2018-04-15T17:16:38.214Z,4.63
2018-04-15T17:19:13.488Z,4.80
2018-04-15T17:21:48.240Z,5.00
2018-04-15T17:24:23.568Z,5.20
2018-04-15T17:26:58.368Z,4.37
2018-04-15T17:29:33.613Z,5.53
2018-04-15T17:32:08.397Z,4.40
2018-04-15T17:34:43.225Z,4.00
2018-04-15T17:37:17.994Z,4.37
2018-04-15T17:39:52.652Z,4.60
2018-04-15T17:42:27.325Z,4.23
2018-04-15T17:45:02.651Z,3.87
2018-04-15T17:47:37.329Z,4.40
2018-04-15T17:50:12.044Z,8.20
2018-04-15T17:52:46.782Z,3.93
2018-04-15T17:55:24.930Z,4.63
2018-04-15T17:57:59.860Z,6.10
2018-04-15T18:00:35.251Z,6.10
2018-04-15T18:03:10.002Z,5.63
2018-04-15T18:05:45.205Z,4.43
2018-04-15T18:08:20.863Z,7.33
2018-04-15T18:10:55.599Z,4.43
2018-04-15T18:13:30.257Z,3.87
2018-04-15T18:16:05.114Z,4.13
2018-04-15T18:18:39.730Z,4.50
2018-04-15T18:21:14.518Z,4.20
2018-04-15T18:23:49.195Z,4.07
2018-04-15T18:26:24.011Z,3.90
2018-04-15T18:28:58.811Z,4.30
2018-04-15T18:31:33.567Z,4.73
2018-04-15T18:34:08.424Z,5.67
2018-04-15T18:36:44.000Z,4.47
2018-04-15T18:39:18.963Z,4.03
2018-04-15T18:41:53.866Z,6.63
2018-04-15T18:44:30.764Z,4.00
2018-04-15T18:47:05.410Z,4.53
2018-04-15T18:49:40.269Z,3.73
2018-04-15T18:52:09.614Z,4.50
2018-04-15T18:54:38.665Z,4.63
2018-04-15T18:57:07.754Z,4.17
2018-04-15T18:59:36.914Z,5.40
2018-04-15T19:02:06.680Z,4.80
2018-04-15T19:04:35.698Z,4.87
2018-04-15T19:07:05.043Z,4.30
2018-04-15T19:09:34.211Z,6.10
2018-04-15T19:12:04.176Z,9.70
2018-04-15T19:14:33.182Z,9.17
2018-04-15T19:17:02.296Z,5.43
2018-04-15T19:19:32.273Z,5.17
2018-04-15T19:22:01.332Z,8.63
2018-04-15T19:24:31.172Z,6.57
2018-04-15T19:27:00.212Z,5.97
2018-04-15T19:29:29.214Z,7.40
2018-04-15T19:31:58.450Z,7.13
2018-04-15T19:34:27.751Z,7.20
2018-04-15T19:36:57.470Z,9.63
2018-04-15T19:39:26.484Z,8.37
2018-04-15T19:41:55.611Z,7.87
2018-04-15T19:44:25.068Z,9.97
2018-04-15T19:46:55.510Z,8.30
2018-04-15T19:49:25.328Z,8.00
2018-04-15T19:51:54.306Z,9.93
2018-04-15T19:54:23.302Z,7.27
2018-04-15T19:56:58.082Z,9.00
2018-04-15T19:59:32.770Z,11.30
2018-04-15T20:02:03.570Z,8.53
2018-04-15T20:04:32.736Z,12.10
2018-04-15T20:07:01.917Z,10.43
2018-04-15T20:09:32.702Z,9.20
2018-04-15T20:12:01.982Z,7.50
2018-04-15T20:14:31.463Z,9.50
2018-04-15T20:17:06.456Z,8.93
2018-04-15T20:19:41.574Z,8.87
2018-04-15T20:22:16.447Z,8.80
2018-04-15T20:24:51.110Z,8.90
2018-04-15T20:27:26.283Z,7.73
2018-04-15T20:30:01.824Z,7.63
2018-04-15T20:32:36.638Z,10.10
2018-04-15T20:35:11.285Z,8.73
2018-04-15T20:37:46.011Z,9.87
2018-04-15T20:40:20.650Z,8.57
2018-04-15T20:42:55.431Z,11.53
2018-04-15T20:45:30.277Z,8.40
2018-04-15T20:48:05.183Z,8.60
2018-04-15T20:50:39.946Z,7.27
2018-04-15T20:53:14.875Z,7.27
2018-04-15T20:55:50.464Z,7.00
2018-04-15T20:58:20.217Z,7.83
2018-04-15T21:00:55.045Z,7.87
2018-04-15T21:03:30.933Z,7.77
2018-04-15T21:06:05.615Z,7.57
2018-04-15T21:08:41.265Z,10.70
2018-04-15T21:11:16.074Z,7.37
2018-04-15T21:13:50.764Z,6.87
2018-04-15T21:16:25.650Z,9.17
2018-04-15T21:19:00.325Z,7.77
2018-04-15T21:21:34.917Z,7.50
2018-04-15T21:24:09.661Z,7.57
2018-04-15T21:26:44.509Z,7.73
2018-04-15T21:29:19.429Z,7.83
2018-04-15T21:31:54.734Z,7.50
2018-04-15T21:34:29.492Z,8.83
2018-04-15T21:37:05.009Z,8.47
2018-04-15T21:39:40.084Z,8.70
2018-04-15T21:42:15.510Z,10.53
2018-04-15T21:44:50.491Z,7.77
2018-04-15T21:47:24.881Z,8.67
2018-04-15T21:49:59.575Z,7.00
2018-04-15T21:52:33.929Z,7.47
2018-04-15T21:55:08.551Z,13.03
2018-04-15T21:57:43.201Z,10.23
2018-04-15T22:00:17.726Z,8.43
2018-04-15T22:02:52.345Z,8.40
2018-04-15T22:05:26.793Z,7.60
2018-04-15T22:08:02.132Z,8.67
2018-04-15T22:10:36.747Z,8.50
2018-04-15T22:13:11.254Z,8.53
2018-04-15T22:15:45.990Z,10.90
2018-04-15T22:18:15.283Z,9.80
2018-04-15T22:20:49.965Z,9.83
2018-04-15T22:23:25.424Z,7.73
2018-04-15T22:26:00.293Z,7.67
2018-04-15T22:28:35.544Z,8.10
2018-04-15T22:31:10.214Z,9.67
2018-04-15T22:33:45.899Z,9.00
2018-04-15T22:36:20.622Z,9.30
2018-04-15T22:38:55.336Z,8.17
2018-04-15T22:41:30.288Z,9.20
2018-04-15T22:44:05.119Z,9.40
2018-04-15T22:46:41.005Z,8.80
2018-04-15T22:49:20.953Z,8.17
2018-04-15T22:51:55.443Z,10.60
2018-04-15T22:54:31.094Z,9.13
2018-04-15T22:57:11.337Z,8.53
2018-04-15T22:59:46.907Z,9.30
2018-04-15T23:02:21.668Z,8.03
2018-04-15T23:04:56.926Z,9.33
2018-04-15T23:07:31.479Z,8.33
2018-04-15T23:10:06.093Z,9.67
2018-04-15T23:12:41.632Z,11.93
2018-04-15T23:15:16.229Z,10.10
2018-04-15T23:17:50.825Z,10.70
2018-04-15T23:20:25.539Z,10.60
2018-04-15T23:23:00.435Z,8.67
2018-04-15T23:25:35.185Z,8.67
2018-04-15T23:28:04.321Z,10.67
2018-04-15T23:30:39.844Z,9.83
2018-04-15T23:33:14.574Z,9.93
2018-04-15T23:35:49.169Z,8.63
2018-04-15T23:38:23.890Z,8.90
2018-04-15T23:40:58.672Z,9.43
2018-04-15T23:43:33.338Z,11.70
2018-04-15T23:46:08.091Z,9.47
2018-04-15T23:48:42.793Z,8.30
2018-04-15T23:51:17.777Z,10.70
2018-04-15T23:53:52.573Z,10.73
2018-04-15T23:56:28.281Z,13.67
2018-04-15T23:59:02.786Z,11.97
